Time;durP1;ratioP1;P1;durP2;ratioP2;P2;SDS_P1;SDS_P2;PMS_P1;PMS_P2;Temp;Humidity;BMP_temperature;BMP_pressure;BME280_temperature;BME280_humidity;BME280_pressure;Samples;Min_cycle;Max_cycle;Signal;HPM_P1;HPM_P2
2021/04/05 00:02:21;;;;;;;63.78;18.70;;;;;;;4.16;100.00;101425.78;5234313;28;20087;-67
2021/04/05 00:04:51;;;;;;;47.25;18.35;;;;;;;4.12;100.00;101415.53;5226771;28;20024;-67
2021/04/05 00:07:22;;;;;;;63.78;19.88;;;;;;;4.15;100.00;101417.94;5225039;28;20032;-67
2021/04/05 00:09:52;;;;;;;60.72;19.15;;;;;;;4.14;100.00;101418.91;5237043;28;20055;-71
2021/04/05 00:12:22;;;;;;;49.45;20.10;;;;;;;4.08;100.00;101408.72;5235474;28;20112;-70
2021/04/05 00:14:53;;;;;;;61.03;18.05;;;;;;;4.11;100.00;101404.03;5231437;28;20062;-67
2021/04/05 00:17:23;;;;;;;46.28;18.08;;;;;;;4.16;100.00;101393.91;5229836;28;20325;-68
2021/04/05 00:19:54;;;;;;;58.80;18.17;;;;;;;4.18;100.00;101395.63;5232262;28;20052;-68
2021/04/05 00:22:24;;;;;;;49.10;19.00;;;;;;;4.16;100.00;101399.22;5224015;28;20029;-71
2021/04/05 00:24:55;;;;;;;58.08;17.77;;;;;;;4.16;100.00;101406.34;5222993;28;20031;-67
2021/04/05 00:27:27;;;;;;;48.83;16.30;;;;;;;4.17;100.00;101400.09;5223907;28;20113;-68
2021/04/05 00:29:58;;;;;;;41.67;15.82;;;;;;;4.14;100.00;101403.81;5223305;28;20078;-68
2021/04/05 00:32:28;;;;;;;47.45;15.85;;;;;;;4.17;100.00;101381.50;5237111;28;20469;-67
2021/04/05 00:34:58;;;;;;;52.92;16.50;;;;;;;4.16;100.00;101383.28;5236403;28;20028;-70
2021/04/05 00:37:29;;;;;;;42.20;15.80;;;;;;;4.20;100.00;101383.06;5223515;28;20112;-68
2021/04/05 00:39:59;;;;;;;41.83;15.07;;;;;;;4.15;100.00;101372.78;5236843;28;20111;-68
2021/04/05 00:42:30;;;;;;;43.63;14.45;;;;;;;4.13;100.00;101364.94;5244615;28;20311;-67
2021/04/05 00:45:04;;;;;;;40.47;14.88;;;;;;;4.12;100.00;101357.09;5230959;28;20036;-66
2021/04/05 00:47:36;;;;;;;51.75;16.55;;;;;;;4.06;100.00;101352.22;5243491;28;20023;-71
2021/04/05 00:50:13;;;;;;;39.22;15.25;;;;;;;3.94;100.00;101348.66;5239239;28;20020;-66
2021/04/05 00:52:44;;;;;;;49.83;16.73;;;;;;;3.84;100.00;101343.16;5223531;28;20075;-69
2021/04/05 00:55:15;;;;;;;43.38;15.02;;;;;;;3.86;100.00;101341.22;5223075;28;20029;-71
2021/04/05 00:57:48;;;;;;;48.63;15.20;;;;;;;3.89;100.00;101337.53;5237013;28;20496;-68
2021/04/05 01:00:38;;;;;;;42.67;14.20;;;;;;;3.87;100.00;101331.50;5229701;28;20028;-69
2021/04/05 01:03:11;;;;;;;37.20;13.85;;;;;;;3.89;100.00;101326.91;5239595;28;20424;-67
2021/04/05 01:05:42;;;;;;;40.75;14.13;;;;;;;3.86;100.00;101320.00;5222014;28;20021;-69
2021/04/05 01:08:16;;;;;;;44.92;14.57;;;;;;;3.84;100.00;101313.97;5222840;28;20352;-68
2021/04/05 01:10:47;;;;;;;39.97;13.75;;;;;;;3.87;100.00;101311.09;5221083;28;20497;-68
2021/04/05 01:13:19;;;;;;;31.98;12.65;;;;;;;3.89;100.00;101305.66;5243215;28;20059;-69
2021/04/05 01:15:50;;;;;;;32.60;12.38;;;;;;;3.89;100.00;101293.25;5228762;28;20070;-68
2021/04/05 01:18:21;;;;;;;34.42;12.82;;;;;;;3.88;100.00;101288.91;5227020;28;20433;-68
2021/04/05 01:20:51;;;;;;;40.42;13.35;;;;;;;3.86;100.00;101292.59;5240282;28;20032;-67
2021/04/05 01:23:23;;;;;;;42.20;14.00;;;;;;;3.81;100.00;101292.94;5222385;28;20136;-69
2021/04/05 01:25:53;;;;;;;39.55;12.65;;;;;;;3.81;100.00;101290.28;5227569;28;20473;-68
2021/04/05 01:28:24;;;;;;;37.60;11.98;;;;;;;3.81;100.00;101286.78;5243197;28;20031;-70
2021/04/05 01:30:57;;;;;;;47.00;14.77;;;;;;;3.75;100.00;101284.59;5242732;28;20025;-69
2021/04/05 01:33:32;;;;;;;36.97;14.30;;;;;;;3.67;100.00;101279.00;5229456;28;20501;-69
2021/04/05 01:36:07;;;;;;;43.95;12.70;;;;;;;3.62;100.00;101282.00;5231044;28;20032;-71
2021/04/05 01:38:52;;;;;;;42.45;12.75;;;;;;;3.60;100.00;101275.94;5240701;28;20055;-68
2021/04/05 01:41:25;;;;;;;;;;;;;;;3.54;100.00;101269.25;5234935;28;20073;-68
2021/04/05 01:43:56;;;;;;;45.67;13.05;;;;;;;3.54;100.00;101245.38;5236075;28;19909;-71
2021/04/05 01:46:32;;;;;;;41.05;11.98;;;;;;;3.51;100.00;101244.75;5223723;28;20032;-69
2021/04/05 01:49:09;;;;;;;42.47;13.00;;;;;;;3.55;100.00;101248.88;5233328;28;20028;-68
2021/04/05 01:51:42;;;;;;;46.20;13.50;;;;;;;3.55;100.00;101243.56;5222406;28;20024;-68
2021/04/05 01:54:12;;;;;;;44.58;13.73;;;;;;;3.57;100.00;101242.53;5233002;28;20024;-69
2021/04/05 01:56:43;;;;;;;45.15;14.02;;;;;;;3.54;100.00;101244.53;5238376;28;20025;-68
2021/04/05 01:59:14;;;;;;;46.85;14.50;;;;;;;3.53;100.00;101237.56;5221885;28;20362;-68
2021/04/05 02:01:44;;;;;;;39.22;12.40;;;;;;;3.54;100.00;101237.44;5222438;28;20100;-69
2021/04/05 02:04:15;;;;;;;39.88;12.50;;;;;;;3.53;100.00;101221.63;5235502;28;20024;-69
2021/04/05 02:06:47;;;;;;;39.30;12.35;;;;;;;3.54;100.00;101213.56;5222062;28;20718;-69
2021/04/05 02:09:18;;;;;;;36.88;13.23;;;;;;;3.52;100.00;101214.63;5221507;28;20474;-68
2021/04/05 02:11:48;;;;;;;44.17;12.60;;;;;;;3.53;100.00;101206.56;5224926;28;20033;-68
2021/04/05 02:14:19;;;;;;;49.00;13.38;;;;;;;3.55;100.00;101199.31;5241288;28;20500;-69
2021/04/05 02:16:50;;;;;;;42.15;13.05;;;;;;;3.51;100.00;101192.53;5233949;28;20124;-69
2021/04/05 02:19:20;;;;;;;45.22;13.88;;;;;;;3.52;100.00;101188.13;5234085;28;20033;-68
2021/04/05 02:21:53;;;;;;;44.30;13.23;;;;;;;3.55;100.00;101201.13;5237858;28;20480;-69
2021/04/05 02:24:23;;;;;;;51.40;13.43;;;;;;;3.51;100.00;101200.50;5233194;28;20024;-69
2021/04/05 02:26:55;;;;;;;38.38;13.15;;;;;;;3.62;100.00;101187.31;5234568;28;20385;-69
2021/04/05 02:29:25;;;;;;;47.15;12.75;;;;;;;3.64;100.00;101179.22;5238905;28;20098;-69
2021/04/05 02:31:56;;;;;;;45.72;13.20;;;;;;;3.64;100.00;101182.72;5224813;28;20119;-68
2021/04/05 02:34:27;;;;;;;53.25;14.15;;;;;;;3.60;100.00;101175.09;5230864;28;20499;-71
2021/04/05 02:36:57;;;;;;;53.65;13.30;;;;;;;3.64;100.00;101173.94;5232162;28;20020;-69
2021/04/05 02:39:28;;;;;;;49.88;14.27;;;;;;;3.65;100.00;101165.00;5246066;28;20107;-69
2021/04/05 02:41:59;;;;;;;53.08;16.20;;;;;;;3.65;100.00;101154.38;5233849;28;20016;-69
2021/04/05 02:44:29;;;;;;;59.15;16.85;;;;;;;3.60;100.00;101154.72;5246199;28;20035;-71
2021/04/05 02:47:00;;;;;;;51.45;14.10;;;;;;;3.67;100.00;101154.28;5233192;28;20020;-70
2021/04/05 02:49:31;;;;;;;43.33;14.27;;;;;;;3.66;100.00;101137.50;5234506;28;20052;-69
2021/04/05 02:52:02;;;;;;;50.53;14.30;;;;;;;3.63;100.00;101133.28;5239317;28;20393;-72
2021/04/05 02:54:33;;;;;;;45.55;14.48;;;;;;;3.74;100.00;101139.59;5225687;28;20028;-69
2021/04/05 02:57:04;;;;;;;49.40;14.27;;;;;;;3.82;100.00;101139.88;5224354;28;20033;-69
2021/04/05 02:59:34;;;;;;;54.92;14.60;;;;;;;3.74;100.00;101129.81;5238136;28;20499;-69
2021/04/05 03:02:05;;;;;;;42.10;14.45;;;;;;;3.71;100.00;101129.19;5233867;28;20036;-69
2021/04/05 03:04:36;;;;;;;45.88;15.48;;;;;;;3.75;100.00;101135.97;5232865;28;20095;-69
2021/04/05 03:07:07;;;;;;;49.67;15.15;;;;;;;3.80;100.00;101126.69;5236982;28;20131;-71
2021/04/05 03:09:38;;;;;;;42.67;14.35;;;;;;;3.72;100.00;101121.16;5226545;28;20054;-69
2021/04/05 03:12:10;;;;;;;52.85;16.10;;;;;;;3.71;100.00;101118.59;5240733;28;20152;-68
2021/04/05 03:14:40;;;;;;;50.85;16.02;;;;;;;3.75;100.00;101114.75;5226832;28;20032;-69
2021/04/05 03:17:12;;;;;;;54.13;16.80;;;;;;;3.81;100.00;101114.28;5225503;28;20025;-69
2021/04/05 03:19:43;;;;;;;46.20;16.13;;;;;;;3.81;100.00;101114.28;5235964;28;20075;-69
2021/04/05 03:22:14;;;;;;;52.72;17.27;;;;;;;3.88;100.00;101110.22;5246092;28;20444;-68
2021/04/05 03:24:44;;;;;;;51.92;15.75;;;;;;;3.99;100.00;101106.75;5237472;28;20051;-69
2021/04/05 03:27:15;;;;;;;48.97;17.20;;;;;;;3.99;100.00;101104.06;5225042;28;20053;-71
2021/04/05 03:29:48;;;;;;;45.28;17.08;;;;;;;4.01;100.00;101102.97;5233432;28;20203;-69
2021/04/05 03:32:21;;;;;;;66.38;18.17;;;;;;;4.02;100.00;101091.44;5228308;28;20052;-70
2021/04/05 03:34:55;;;;;;;48.53;17.83;;;;;;;4.04;100.00;101089.47;5236263;28;20059;-69
2021/04/05 03:37:29;;;;;;;52.53;19.77;;;;;;;4.05;100.00;101093.81;5239611;28;20405;-73
2021/04/05 03:40:00;;;;;;;58.58;17.95;;;;;;;4.18;100.00;101096.41;5237836;28;20024;-69
2021/04/05 03:42:36;;;;;;;53.10;18.58;;;;;;;4.14;100.00;101073.69;5225032;28;20318;-68
2021/04/05 03:45:35;;;;;;;61.65;19.35;;;;;;;4.17;100.00;101076.13;5240236;28;20020;-69
2021/04/05 03:48:20;;;;;;;63.33;19.92;;;;;;;4.26;100.00;101058.59;5244897;28;20035;-69
2021/04/05 03:51:02;;;;;;;67.18;19.73;;;;;;;4.32;100.00;101063.44;5235131;28;20461;-69
2021/04/05 03:53:42;;;;;;;62.92;19.13;;;;;;;4.32;100.00;101048.34;5242884;28;20024;-69
2021/04/05 03:56:15;;;;;;;49.20;18.05;;;;;;;4.31;100.00;101056.44;5232093;28;20021;-68
2021/04/05 03:58:49;;;;;;;65.38;21.75;;;;;;;4.35;100.00;101040.13;5236929;28;20028;-69
2021/04/05 04:01:24;;;;;;;69.57;20.17;;;;;;;4.32;100.00;101042.22;5236869;28;20074;-69
2021/04/05 04:04:05;;;;;;;64.28;20.20;;;;;;;4.27;100.00;101034.59;5234583;28;20438;-71
2021/04/05 04:06:42;;;;;;;56.28;20.45;;;;;;;4.28;100.00;101028.31;5238922;28;20078;-69
2021/04/05 04:09:15;;;;;;;68.63;20.02;;;;;;;4.30;100.00;101013.09;5223230;28;20021;-69
2021/04/05 04:11:48;;;;;;;58.15;21.65;;;;;;;4.27;100.00;101005.38;5237830;28;20406;-68
2021/04/05 04:14:19;;;;;;;58.40;19.70;;;;;;;4.33;100.00;101001.41;5247161;28;20103;-70
2021/04/05 04:16:51;;;;;;;58.17;20.65;;;;;;;4.35;100.00;100997.63;5224213;28;20124;-69
2021/04/05 04:19:22;;;;;;;65.82;21.42;;;;;;;4.36;100.00;100996.66;5235966;28;20288;-70
2021/04/05 04:21:53;;;;;;;67.20;22.95;;;;;;;4.44;100.00;100997.88;5233589;28;20023;-69
2021/04/05 04:24:26;;;;;;;71.90;22.58;;;;;;;4.45;100.00;100992.44;5236400;28;20497;-69
2021/04/05 04:26:56;;;;;;;69.57;22.33;;;;;;;4.54;100.00;100986.38;5224143;28;20532;-69
2021/04/05 04:29:27;;;;;;;63.92;22.13;;;;;;;4.55;100.00;100985.41;5223342;28;20033;-68
2021/04/05 04:31:59;;;;;;;72.43;22.00;;;;;;;4.58;100.00;100979.84;5224239;28;20146;-69
2021/04/05 04:34:29;;;;;;;71.55;23.10;;;;;;;4.60;100.00;100969.09;5223876;28;20032;-69
2021/04/05 04:37:02;;;;;;;62.88;20.60;;;;;;;4.63;100.00;100972.34;5223224;28;20095;-69
2021/04/05 04:39:35;;;;;;;72.13;23.60;;;;;;;4.63;100.00;100972.34;5222523;28;20029;-68
2021/04/05 04:42:06;;;;;;;68.72;22.27;;;;;;;4.82;100.00;100969.03;5240676;28;20074;-69
2021/04/05 04:44:37;;;;;;;72.10;22.58;;;;;;;4.88;100.00;100976.50;5244147;28;20052;-69
2021/04/05 04:47:08;;;;;;;63.35;19.40;;;;;;;4.94;100.00;100967.19;5225475;28;20031;-69
2021/04/05 04:49:38;;;;;;;67.75;23.48;;;;;;;4.96;100.00;100972.34;5235175;28;20028;-69
2021/04/05 04:52:09;;;;;;;58.15;19.95;;;;;;;4.94;100.00;100962.69;5223860;28;20051;-69
2021/04/05 04:54:39;;;;;;;78.90;23.13;;;;;;;4.96;100.00;100956.41;5236758;28;20078;-69
2021/04/05 04:57:10;;;;;;;67.45;21.73;;;;;;;4.99;100.00;100958.81;5223563;28;20036;-69
2021/04/05 04:59:41;;;;;;;49.75;20.13;;;;;;;5.00;100.00;100948.03;5221944;28;20036;-69
2021/04/05 05:02:12;;;;;;;73.15;28.70;;;;;;;5.04;100.00;100954.81;5223535;28;20541;-69
2021/04/05 05:04:46;;;;;;;68.43;22.50;;;;;;;5.02;100.00;100943.47;5226193;28;20492;-69
2021/04/05 05:07:17;;;;;;;79.70;28.57;;;;;;;5.09;100.00;100946.44;5233429;28;20111;-70
2021/04/05 05:09:48;;;;;;;62.00;21.70;;;;;;;5.13;100.00;100942.56;5222192;28;20112;-69
2021/04/05 05:12:19;;;;;;;61.05;22.63;;;;;;;5.13;100.00;100942.56;5235311;28;20107;-71
2021/04/05 05:14:49;;;;;;;66.00;22.38;;;;;;;5.20;100.00;100936.59;5243341;28;20109;-70
2021/04/05 05:17:20;;;;;;;63.05;20.58;;;;;;;5.30;100.00;100930.50;5229317;28;20028;-69
2021/04/05 05:19:52;;;;;;;65.93;21.77;;;;;;;5.27;100.00;100930.75;5230895;28;20086;-69
2021/04/05 05:22:24;;;;;;;68.38;23.05;;;;;;;5.28;100.00;100921.81;5236812;28;20021;-73
2021/04/05 05:24:56;;;;;;;68.28;22.05;;;;;;;5.28;100.00;100920.00;5221667;28;20025;-70
2021/04/05 05:27:28;;;;;;;61.97;20.63;;;;;;;5.31;100.00;100925.03;5234801;28;20031;-72
2021/04/05 05:29:59;;;;;;;66.65;21.35;;;;;;;5.41;100.00;100912.63;5234165;28;20047;-69
2021/04/05 05:32:29;;;;;;;54.80;20.80;;;;;;;5.44;100.00;100912.38;5229879;28;20391;-69
2021/04/05 05:35:00;;;;;;;66.22;21.20;;;;;;;5.37;100.00;100908.56;5230265;28;20340;-70
2021/04/05 05:37:31;;;;;;;63.97;22.20;;;;;;;5.42;100.00;100911.69;5241325;28;20046;-67
2021/04/05 05:40:05;;;;;;;65.75;21.60;;;;;;;5.44;100.00;100911.53;5216302;28;20557;-71
2021/04/05 05:43:04;;;;;;;62.72;20.65;;;;;;;5.51;100.00;100914.50;5232889;28;20431;-72
2021/04/05 05:45:49;;;;;;;69.40;22.83;;;;;;;5.56;100.00;100909.63;5223153;28;20021;-73
2021/04/05 05:48:24;;;;;;;60.47;20.58;;;;;;;5.57;100.00;100909.53;5225935;28;20028;-69
2021/04/05 05:51:05;;;;;;;53.42;21.98;;;;;;;5.66;100.00;100906.03;5242566;28;20420;-69
2021/04/05 05:53:46;;;;;;;69.13;22.45;;;;;;;5.67;100.00;100910.41;5223269;28;20021;-69
2021/04/05 05:56:32;;;;;;;67.55;22.70;;;;;;;5.68;100.00;100908.59;5230610;28;20021;-72
2021/04/05 05:59:16;;;;;;;59.58;22.10;;;;;;;5.79;100.00;100900.50;5241914;28;20444;-69
2021/04/05 06:01:56;;;;;;;68.53;22.38;;;;;;;5.78;100.00;100908.63;5235586;28;20482;-72
2021/04/05 06:04:48;;;;;;;66.50;19.45;;;;;;;5.84;100.00;100895.63;5221613;28;20309;-69
2021/04/05 06:07:26;;;;;;;58.15;20.08;;;;;;;5.89;100.00;100888.06;5222974;28;20017;-69
2021/04/05 06:10:21;;;;;;;60.05;20.70;;;;;;;5.96;100.00;100886.56;5221483;28;20025;-69
2021/04/05 06:13:10;;;;;;;49.88;18.23;;;;;;;6.02;100.00;100877.19;5242651;28;20062;-71
2021/04/05 06:15:51;;;;;;;54.47;18.75;;;;;;;6.05;100.00;100868.94;5229482;28;20108;-71
2021/04/05 06:18:30;;;;;;;60.40;18.83;;;;;;;6.13;100.00;100871.78;5232014;28;20047;-69
2021/04/05 06:21:33;;;;;;;55.45;18.45;;;;;;;6.16;100.00;100876.81;5240853;28;20032;-69
2021/04/05 06:24:11;;;;;;;64.15;21.33;;;;;;;6.23;100.00;100861.13;5227873;28;20032;-72
2021/04/05 06:26:54;;;;;;;58.35;19.73;;;;;;;6.22;100.00;100878.06;5242088;28;20107;-70
2021/04/05 06:29:50;;;;;;;46.10;17.67;;;;;;;6.35;100.00;100876.00;5227521;28;20025;-69
2021/04/05 06:32:38;;;;;;;64.07;17.58;;;;;;;6.43;100.00;100878.84;5226674;28;20111;-70
2021/04/05 06:35:23;;;;;;;58.03;18.65;;;;;;;6.53;100.00;100870.00;5222474;28;20027;-69
2021/04/05 06:37:58;;;;;;;66.40;18.85;;;;;;;6.54;100.00;100871.69;5231479;28;20033;-71
2021/04/05 06:40:30;;;;;;;54.95;17.08;;;;;;;6.72;100.00;100873.50;5223860;28;20433;-69
2021/04/05 06:43:26;;;;;;;46.55;16.63;;;;;;;6.72;100.00;100862.81;5238168;28;20025;-69
2021/04/05 06:46:27;;;;;;;48.65;15.45;;;;;;;6.78;100.00;100850.78;5230889;28;20489;-69
2021/04/05 06:49:10;;;;;;;42.75;15.90;;;;;;;6.78;100.00;100855.25;5236135;28;20473;-70
2021/04/05 06:51:55;;;;;;;49.58;16.33;;;;;;;6.84;100.00;100844.88;5236941;28;20036;-71
2021/04/05 06:54:58;;;;;;;40.70;15.20;;;;;;;6.90;100.00;100833.63;5230808;28;20020;-71
2021/04/05 06:57:38;;;;;;;50.65;15.30;;;;;;;6.91;100.00;100839.81;5235286;28;20457;-70
2021/04/05 07:00:14;;;;;;;43.65;15.98;;;;;;;6.95;100.00;100842.03;5238723;28;20039;-70
2021/04/05 07:03:01;;;;;;;46.22;16.65;;;;;;;6.98;100.00;100847.09;5239790;28;20094;-70
2021/04/05 07:05:56;;;;;;;44.65;16.73;;;;;;;6.98;100.00;100852.44;5236133;28;20029;-68
2021/04/05 07:08:36;;;;;;;48.45;16.38;;;;;;;6.96;100.00;100842.88;5232908;28;20043;-70
2021/04/05 07:11:33;;;;;;;46.95;17.35;;;;;;;6.72;100.00;100867.31;5235633;28;20032;-73
2021/04/05 07:14:30;;;;;;;57.40;18.50;;;;;;;6.62;100.00;100885.97;5234929;28;20560;-71
2021/04/05 07:17:13;;;;;;;44.60;16.25;;;;;;;6.53;100.00;100896.66;5235261;28;20024;-72
2021/04/05 07:19:58;;;;;;;24.48;9.75;;;;;;;6.24;100.00;100908.09;5231176;28;20120;-71
2021/04/05 07:22:46;;;;;;;15.15;4.95;;;;;;;6.06;100.00;100902.56;5241614;28;20354;-70
2021/04/05 07:25:22;;;;;;;16.75;6.03;;;;;;;5.91;100.00;100920.75;5230412;28;20086;-72
2021/04/05 07:27:53;;;;;;;17.38;5.35;;;;;;;5.81;100.00;100916.34;5230030;28;20064;-72
2021/04/05 07:30:32;;;;;;;21.05;6.00;;;;;;;5.66;100.00;100915.84;5238963;28;20059;-71
2021/04/05 07:33:23;;;;;;;20.00;4.55;;;;;;;5.59;100.00;100915.53;5243821;28;20025;-71
2021/04/05 07:36:15;;;;;;;13.27;3.15;;;;;;;5.55;100.00;100921.25;5231212;28;20037;-72
2021/04/05 07:39:00;;;;;;;19.25;4.53;;;;;;;5.46;100.00;100929.03;5231023;28;20029;-72
2021/04/05 07:41:46;;;;;;;15.68;3.00;;;;;;;5.48;100.00;100936.91;5227602;28;20021;-71
2021/04/05 07:44:32;;;;;;;11.98;3.55;;;;;;;5.42;100.00;100926.78;5232265;28;20412;-70
2021/04/05 07:47:14;;;;;;;14.57;3.50;;;;;;;5.39;100.00;100935.03;5226272;28;20048;-71
2021/04/05 07:50:02;;;;;;;17.58;2.88;;;;;;;5.40;100.00;100937.56;5238353;28;20058;-73
2021/04/05 07:52:57;;;;;;;27.77;3.45;;;;;;;5.45;100.00;100930.03;5232792;28;20025;-73
2021/04/05 07:55:28;;;;;;;13.48;3.47;;;;;;;5.47;100.00;100943.19;5233234;28;20030;-71
2021/04/05 07:58:09;;;;;;;25.65;3.80;;;;;;;5.46;100.00;100958.31;5221637;28;20051;-71
2021/04/05 08:00:58;;;;;;;13.75;2.95;;;;;;;5.36;100.00;100977.84;5228005;28;20043;-73
2021/04/05 08:03:34;;;;;;;23.17;4.00;;;;;;;5.22;100.00;100955.09;5234860;28;20028;-71
2021/04/05 08:06:06;;;;;;;;;;;;;;;5.12;100.00;100975.41;5236265;28;20025;-71
2021/04/05 08:08:44;;;;;;;28.60;6.80;;;;;;;4.94;100.00;100977.81;5232975;28;19909;-74
2021/04/05 08:11:26;;;;;;;14.25;3.55;;;;;;;4.87;100.00;100969.50;5230545;28;20393;-73
2021/04/05 08:14:03;;;;;;;8.40;1.60;;;;;;;4.83;100.00;100978.69;5231954;28;20507;-72
2021/04/05 08:16:52;;;;;;;7.82;2.45;;;;;;;4.74;100.00;100991.91;5234958;28;20333;-71
2021/04/05 08:19:27;;;;;;;8.43;2.85;;;;;;;4.70;100.00;101001.09;5231436;28;20062;-72
2021/04/05 08:22:16;;;;;;;11.23;3.67;;;;;;;4.63;100.00;101014.03;5224173;28;20025;-72
2021/04/05 08:24:58;;;;;;;6.32;3.45;;;;;;;4.47;100.00;101026.84;5235226;28;20451;-72
2021/04/05 08:27:40;;;;;;;7.63;2.50;;;;;;;4.33;100.00;101026.13;5233097;28;20432;-72
2021/04/05 08:30:21;;;;;;;9.07;2.17;;;;;;;4.27;100.00;101045.22;5222191;28;20037;-72
2021/04/05 08:33:03;;;;;;;7.13;2.40;;;;;;;4.16;100.00;101055.81;5222843;28;20577;-72
2021/04/05 08:35:38;;;;;;;5.75;2.25;;;;;;;4.01;100.00;101070.28;5231664;28;20070;-71
2021/04/05 08:38:24;;;;;;;5.95;2.42;;;;;;;4.12;100.00;101049.09;5224284;28;20073;-71
2021/04/05 08:41:07;;;;;;;;;;;;;;;4.05;100.00;101095.63;5230573;28;20112;-71
2021/04/05 08:43:58;;;;;;;16.63;5.00;;;;;;;4.03;100.00;101092.28;5231555;28;19915;-72
2021/04/05 08:46:32;;;;;;;14.25;5.22;;;;;;;3.94;100.00;101099.13;5226155;28;20032;-72
2021/04/05 08:49:07;;;;;;;12.68;2.97;;;;;;;3.75;100.00;101104.97;5230665;28;20040;-72
2021/04/05 08:51:44;;;;;;;20.02;2.65;;;;;;;3.70;100.00;101117.75;5236946;28;20024;-71
2021/04/05 08:54:20;;;;;;;17.92;3.15;;;;;;;3.66;100.00;101134.84;5225558;28;20058;-72
2021/04/05 08:56:56;;;;;;;19.35;3.13;;;;;;;3.48;100.00;101150.34;5233060;28;20032;-71
2021/04/05 08:59:40;;;;;;;23.38;5.38;;;;;;;3.44;100.00;101155.97;5236912;28;20392;-71
2021/04/05 09:02:25;;;;;;;22.95;4.68;;;;;;;3.63;100.00;101156.31;5223742;28;20025;-72
2021/04/05 09:04:56;;;;;;;19.47;4.97;;;;;;;3.59;100.00;101153.03;5236503;28;20033;-72
2021/04/05 09:07:46;;;;;;;20.88;5.03;;;;;;;3.62;100.00;101154.63;5225742;28;20127;-72
2021/04/05 09:10:24;;;;;;;25.80;4.93;;;;;;;3.53;100.00;101165.91;5238466;28;20078;-72
2021/04/05 09:12:57;;;;;;;16.80;2.80;;;;;;;3.48;100.00;101173.38;5231578;28;20039;-71
2021/04/05 09:15:27;;;;;;;15.15;2.85;;;;;;;3.50;100.00;101185.53;5225936;28;20047;-71
2021/04/05 09:18:21;;;;;;;19.20;3.05;;;;;;;3.46;100.00;101191.19;5226108;28;20032;-72
2021/04/05 09:21:18;;;;;;;17.55;2.72;;;;;;;3.51;100.00;101203.16;5238143;28;20431;-71
2021/04/05 09:24:07;;;;;;;13.13;1.95;;;;;;;3.49;100.00;101193.63;5238854;28;20035;-71
2021/04/05 09:26:57;;;;;;;19.80;3.70;;;;;;;3.54;100.00;101188.84;5226539;28;20393;-71
2021/04/05 09:29:42;;;;;;;12.73;2.60;;;;;;;3.64;100.00;101195.16;5225078;28;20025;-71
2021/04/05 09:32:32;;;;;;;10.60;2.58;;;;;;;3.66;100.00;101193.22;5207481;23;20487;-77
2021/04/05 09:35:22;;;;;;;34.03;5.13;;;;;;;3.69;100.00;101200.97;5213774;28;20025;-76
2021/04/05 09:37:59;;;;;;;16.58;2.90;;;;;;;3.73;100.00;101210.41;5198155;28;20033;-78
2021/04/05 09:40:41;;;;;;;25.35;2.80;;;;;;;3.61;100.00;101228.09;5199935;28;20021;-75
2021/04/05 09:43:21;;;;;;;13.85;2.22;;;;;;;3.62;100.00;101232.41;5185749;28;20481;-77
2021/04/05 09:46:03;;;;;;;13.65;2.63;;;;;;;3.58;100.00;101224.78;5203455;28;20479;-76
2021/04/05 09:48:46;;;;;;;15.02;2.47;;;;;;;3.65;100.00;101231.34;5207742;28;20124;-77
2021/04/05 09:51:42;;;;;;;16.23;2.35;;;;;;;3.57;100.00;101233.72;5202400;28;20017;-77
2021/04/05 09:54:25;;;;;;;12.43;3.05;;;;;;;3.72;100.00;101234.41;5204374;28;20029;-77
2021/04/05 09:57:01;;;;;;;19.60;2.53;;;;;;;3.62;100.00;101248.34;5199056;28;20029;-77
2021/04/05 09:59:40;;;;;;;11.30;1.77;;;;;;;3.60;100.00;101244.09;5202969;28;20037;-77
2021/04/05 10:02:14;;;;;;;14.23;1.88;;;;;;;3.85;100.00;101254.59;5203075;28;20018;-77
2021/04/05 10:04:47;;;;;;;17.05;2.53;;;;;;;3.89;100.00;101263.19;5203287;28;20021;-77
2021/04/05 10:07:18;;;;;;;7.50;2.10;;;;;;;3.80;100.00;101248.78;5204742;28;20075;-76
2021/04/05 10:09:52;;;;;;;12.77;2.25;;;;;;;3.80;100.00;101248.78;5202480;28;20027;-75
2021/04/05 10:12:25;;;;;;;9.02;1.60;;;;;;;4.02;100.00;101277.28;5203683;28;20022;-76
2021/04/05 10:14:56;;;;;;;13.27;1.80;;;;;;;4.12;100.00;101272.13;5193327;28;20041;-76
2021/04/05 10:17:27;;;;;;;9.60;2.15;;;;;;;4.34;100.00;101274.84;5200698;28;20030;-77
2021/04/05 10:20:06;;;;;;;10.32;2.50;;;;;;;4.38;100.00;101280.78;5204216;28;20025;-76
2021/04/05 10:22:41;;;;;;;9.32;1.90;;;;;;;4.46;100.00;101272.22;5203563;28;20021;-76
2021/04/05 10:25:15;;;;;;;16.75;2.20;;;;;;;4.71;100.00;101272.03;5203600;28;20033;-75
2021/04/05 10:27:48;;;;;;;11.27;1.45;;;;;;;4.73;100.00;101274.59;5203665;28;20033;-76
2021/04/05 10:30:20;;;;;;;15.25;2.10;;;;;;;4.73;100.00;101299.38;5202969;28;20052;-75
2021/04/05 10:32:54;;;;;;;14.63;1.60;;;;;;;4.64;100.00;101286.78;5203862;28;20024;-78
2021/04/05 10:35:26;;;;;;;12.10;2.55;;;;;;;4.53;100.00;101278.78;5203871;28;20038;-76
2021/04/05 10:37:57;;;;;;;13.30;2.40;;;;;;;4.44;100.00;101284.78;5205113;28;20079;-77
2021/04/05 10:40:28;;;;;;;17.00;3.08;;;;;;;4.36;100.00;101301.28;5205010;28;20092;-77
2021/04/05 10:43:09;;;;;;;13.57;2.10;;;;;;;4.25;100.00;101291.47;5208382;28;20479;-77
2021/04/05 10:45:43;;;;;;;12.85;2.00;;;;;;;4.37;100.00;101303.00;5208621;28;20052;-77
2021/04/05 10:48:28;;;;;;;17.05;2.30;;;;;;;4.35;100.00;101300.44;5208907;28;20029;-77
2021/04/05 10:51:06;;;;;;;11.35;1.92;;;;;;;4.24;100.00;101295.09;5208629;28;20055;-77
2021/04/05 10:53:41;;;;;;;8.20;1.73;;;;;;;4.16;100.00;101294.81;5209596;28;20045;-77
2021/04/05 10:56:11;;;;;;;13.48;1.40;;;;;;;3.99;100.00;101329.72;5208704;28;20056;-77
2021/04/05 10:58:49;;;;;;;4.78;1.88;;;;;;;3.81;100.00;101338.06;5207930;28;20021;-76
2021/04/05 11:01:20;;;;;;;11.95;2.53;;;;;;;3.70;100.00;101353.91;5208328;28;20465;-76
2021/04/05 11:03:53;;;;;;;9.23;1.58;;;;;;;3.84;100.00;101345.81;5208334;28;20049;-77
2021/04/05 11:06:24;;;;;;;12.25;2.95;;;;;;;3.82;100.00;101349.56;5208710;28;20064;-77
2021/04/05 11:08:55;;;;;;;19.85;4.53;;;;;;;4.22;100.00;101347.50;5201838;28;20026;-77
2021/04/05 11:11:31;;;;;;;23.50;5.57;;;;;;;4.52;100.00;101339.06;5195140;28;20024;-77
2021/04/05 11:14:04;;;;;;;16.65;2.83;;;;;;;4.61;100.00;101341.00;5212508;28;20502;-77
2021/04/05 11:16:35;;;;;;;10.63;1.92;;;;;;;4.86;100.00;101339.97;5208435;28;20382;-77
2021/04/05 11:19:08;;;;;;;9.98;2.65;;;;;;;5.15;92.19;101335.06;5207604;28;20041;-78
2021/04/05 11:21:44;;;;;;;10.50;2.47;;;;;;;5.17;81.51;101341.16;5209466;28;20067;-78
2021/04/05 11:24:16;;;;;;;19.08;2.97;;;;;;;5.38;85.54;101346.59;5210045;28;20025;-78
2021/04/05 11:26:47;;;;;;;8.13;1.50;;;;;;;5.33;73.68;101342.59;5209258;28;20075;-78
2021/04/05 11:29:21;;;;;;;18.75;2.05;;;;;;;5.28;85.16;101336.81;5209122;28;20025;-77
2021/04/05 11:31:53;;;;;;;13.20;3.63;;;;;;;5.39;80.20;101353.59;5209455;28;20038;-77
2021/04/05 11:34:27;;;;;;;22.90;2.40;;;;;;;5.65;64.98;101350.69;5208880;28;20116;-77
2021/04/05 11:37:00;;;;;;;8.30;2.00;;;;;;;5.66;59.78;101349.72;5209722;28;20032;-77
2021/04/05 11:39:33;;;;;;;23.30;2.75;;;;;;;5.37;60.40;101357.34;5208388;28;20087;-77
2021/04/05 11:42:06;;;;;;;11.52;2.35;;;;;;;5.31;56.70;101352.50;5208821;28;20040;-77
2021/04/05 11:44:45;;;;;;;10.68;1.60;;;;;;;5.20;51.29;101324.94;5208366;28;20025;-77
2021/04/05 11:47:19;;;;;;;17.25;2.65;;;;;;;4.97;55.79;101340.97;5197437;28;20076;-77
2021/04/05 11:49:49;;;;;;;11.15;3.55;;;;;;;5.03;50.99;101353.81;5204470;28;20116;-77
2021/04/05 11:52:31;;;;;;;6.85;1.50;;;;;;;5.15;54.06;101356.34;5206330;28;20681;-77
2021/04/05 11:55:05;;;;;;;11.57;2.88;;;;;;;5.47;52.38;101374.28;5211011;28;20033;-78
2021/04/05 11:57:44;;;;;;;11.68;2.08;;;;;;;5.39;47.84;101363.41;5193306;28;20033;-78